首页
METAR-TAF:

METAR-TAF

机场 :

羅馬-菲烏米奇諾機場

罗马菲乌米奇诺, 意大利

纬度: 41-48N, 经度: 012-14E, 海拔: 2米

当前天气观测

该预报发布于25分钟前的08:20 UTC
风速8节,风向南转南东,在东南南转西南之间变化
温度 27°C
湿度 84%
气压 1012 hPa
能见度10公里或以上
少量云层高于1500英尺, 塔状积云.
散云层高于2000英尺
小雨

METAR: LIRF 140820Z 16008KT 130V200 9999 -RA FEW015TCU SCT020 27/24 Q1012 TEMPO 4000 TSRA

时间: 10:45 (08:45 UTC)

预报

该预报发布于3小时和45分钟前的05:00 UTC
预报有效从14日的 06点(UTC)到 15日的 12点(UTC)
风速10节,风向南转南东
能见度10公里或以上
散云层高于3000英尺
短暂存在
从 14日的 06点(UTC)到 14日的 12点(UTC)
能見度: 4000
雷暴, 雨
成为
从 14日的 10点(UTC)到 14日的 12点(UTC)
风速12节,风向西南
短暂存在
从 14日的 15点(UTC)到 15日的 03点(UTC)
能見度: 4000
雷暴, 雨
成为
从 14日的 21点(UTC)到 14日的 23点(UTC)
风速8节,风向东转东北
成为
从 15日的 09点(UTC)到 15日的 11点(UTC)
风速10节,风向西南

TAF: LIRF 140500Z 1406/1512 16010KT 9999 SCT030 TEMPO 1406/1412 4000 TSRA BECMG 1410/1412 22012KT TEMPO 1415/1503 4000 TSRA BECMG 1421/1423 07008KT BECMG 1509/1511 22010KT

超过4000个机场的气象观测和天气预报(METAR&TAF报告)。

可查询的气象台以黄色和红色小点在地图上表示。

将鼠标移到小点上方,可查看气象台名称。

然后点击查看天气观测和预报。

如需切换地图:点击带黑十字的绿色按钮放大地图;点击带横线的绿色按钮缩小地图;或者点击绿色箭头查看邻近地区的地图。


METAR-TAF: